Terminal Aerodrome Forecast
Issued by NWS Memphis, TN

Home | Current Version | Previous Version | Text Only | Print | Product List | Glossary On
Versions: 1 2 3 4 5 6 7 8 9 10 11 12 13 14 15 16 17 18
000
FTUS44 KMEG 261138
TAFMKL
TAF
KMKL 261138Z 2612/2712 18008KT P6SM BKN035
     FM261600 18012G21KT P6SM BKN040
     FM270100 18018G28KT P6SM VCTS SCT015CB OVC035
      TEMPO 2702/2703 27025G35KT 1 1/2SM TSRA OVC015CB
     FM270400 26012KT P6SM VCSH SCT025 BKN060
     FM270700 27011G20KT P6SM OVC015=

USA.gov is the U.S. government's official web portal to all federal, state and local government web resources and services.